sensor_id;sensor_type;location;lat;lon;timestamp;P1;durP1;ratioP1;P2;durP2;ratioP2
19842;SDS011;10082;51.038;6.992;2022-10-16T00:00:41;6.15;;;4.38;;
19842;SDS011;10082;51.038;6.992;2022-10-16T00:03:09;4.88;;;4.32;;
19842;SDS011;10082;51.038;6.992;2022-10-16T00:05:40;5.03;;;4.63;;
19842;SDS011;10082;51.038;6.992;2022-10-16T00:08:08;5.10;;;4.68;;
19842;SDS011;10082;51.038;6.992;2022-10-16T00:10:36;4.80;;;4.50;;
19842;SDS011;10082;51.038;6.992;2022-10-16T00:13:03;4.95;;;4.55;;
19842;SDS011;10082;51.038;6.992;2022-10-16T00:15:33;4.57;;;3.85;;
19842;SDS011;10082;51.038;6.992;2022-10-16T00:18:02;4.70;;;4.30;;
19842;SDS011;10082;51.038;6.992;2022-10-16T00:20:29;4.80;;;4.40;;
19842;SDS011;10082;51.038;6.992;2022-10-16T00:22:58;4.75;;;4.35;;
19842;SDS011;10082;51.038;6.992;2022-10-16T00:25:25;5.40;;;4.13;;
19842;SDS011;10082;51.038;6.992;2022-10-16T00:27:52;5.10;;;4.45;;
19842;SDS011;10082;51.038;6.992;2022-10-16T00:30:19;3.45;;;3.15;;
19842;SDS011;10082;51.038;6.992;2022-10-16T00:32:47;5.18;;;3.20;;
19842;SDS011;10082;51.038;6.992;2022-10-16T00:35:14;5.57;;;4.07;;
19842;SDS011;10082;51.038;6.992;2022-10-16T00:37:41;4.85;;;4.32;;
19842;SDS011;10082;51.038;6.992;2022-10-16T00:40:08;4.95;;;3.72;;
19842;SDS011;10082;51.038;6.992;2022-10-16T00:42:36;3.40;;;3.10;;
19842;SDS011;10082;51.038;6.992;2022-10-16T00:45:04;3.40;;;3.20;;
19842;SDS011;10082;51.038;6.992;2022-10-16T00:47:32;3.75;;;3.13;;
19842;SDS011;10082;51.038;6.992;2022-10-16T00:50:04;3.60;;;3.30;;
19842;SDS011;10082;51.038;6.992;2022-10-16T00:52:34;3.15;;;2.95;;
19842;SDS011;10082;51.038;6.992;2022-10-16T00:55:03;4.00;;;3.60;;
19842;SDS011;10082;51.038;6.992;2022-10-16T00:57:33;3.25;;;2.95;;
19842;SDS011;10082;51.038;6.992;2022-10-16T01:00:00;3.47;;;3.28;;
19842;SDS011;10082;51.038;6.992;2022-10-16T01:02:30;3.50;;;3.30;;
19842;SDS011;10082;51.038;6.992;2022-10-16T01:04:57;3.78;;;3.47;;
19842;SDS011;10082;51.038;6.992;2022-10-16T01:07:30;4.15;;;3.50;;
19842;SDS011;10082;51.038;6.992;2022-10-16T01:10:07;3.40;;;3.10;;
19842;SDS011;10082;51.038;6.992;2022-10-16T01:12:41;4.32;;;3.70;;
19842;SDS011;10082;51.038;6.992;2022-10-16T01:15:14;3.83;;;3.53;;
19842;SDS011;10082;51.038;6.992;2022-10-16T01:17:48;3.55;;;2.92;;
19842;SDS011;10082;51.038;6.992;2022-10-16T01:20:21;3.33;;;3.03;;
19842;SDS011;10082;51.038;6.992;2022-10-16T01:22:59;2.60;;;2.40;;
19842;SDS011;10082;51.038;6.992;2022-10-16T01:25:36;2.90;;;2.70;;
19842;SDS011;10082;51.038;6.992;2022-10-16T01:28:17;3.50;;;2.67;;
19842;SDS011;10082;51.038;6.992;2022-10-16T01:30:48;3.42;;;2.50;;
19842;SDS011;10082;51.038;6.992;2022-10-16T01:33:19;2.85;;;2.60;;
19842;SDS011;10082;51.038;6.992;2022-10-16T01:35:51;2.70;;;2.50;;
19842;SDS011;10082;51.038;6.992;2022-10-16T01:38:20;2.85;;;2.53;;
19842;SDS011;10082;51.038;6.992;2022-10-16T01:40:54;2.63;;;2.42;;
19842;SDS011;10082;51.038;6.992;2022-10-16T01:43:27;3.47;;;2.42;;
19842;SDS011;10082;51.038;6.992;2022-10-16T01:46:00;3.25;;;2.70;;
19842;SDS011;10082;51.038;6.992;2022-10-16T01:48:27;3.22;;;2.88;;
19842;SDS011;10082;51.038;6.992;2022-10-16T01:50:59;3.05;;;2.42;;
19842;SDS011;10082;51.038;6.992;2022-10-16T01:53:29;2.55;;;2.35;;
19842;SDS011;10082;51.038;6.992;2022-10-16T01:55:57;2.60;;;2.40;;
19842;SDS011;10082;51.038;6.992;2022-10-16T01:58:27;2.28;;;2.17;;
19842;SDS011;10082;51.038;6.992;2022-10-16T02:00:59;2.60;;;2.40;;
19842;SDS011;10082;51.038;6.992;2022-10-16T02:03:27;2.65;;;2.45;;
19842;SDS011;10082;51.038;6.992;2022-10-16T02:05:55;2.20;;;2.10;;
19842;SDS011;10082;51.038;6.992;2022-10-16T02:08:25;2.65;;;2.30;;
19842;SDS011;10082;51.038;6.992;2022-10-16T02:10:56;3.15;;;2.30;;
19842;SDS011;10082;51.038;6.992;2022-10-16T02:13:26;2.90;;;2.20;;
19842;SDS011;10082;51.038;6.992;2022-10-16T02:15:57;2.63;;;2.42;;
19842;SDS011;10082;51.038;6.992;2022-10-16T02:18:24;3.22;;;2.50;;
19842;SDS011;10082;51.038;6.992;2022-10-16T02:20:55;2.63;;;2.42;;
19842;SDS011;10082;51.038;6.992;2022-10-16T02:23:27;2.28;;;2.17;;
19842;SDS011;10082;51.038;6.992;2022-10-16T02:26:01;2.70;;;2.20;;
19842;SDS011;10082;51.038;6.992;2022-10-16T02:28:34;5.03;;;2.65;;
19842;SDS011;10082;51.038;6.992;2022-10-16T02:31:08;2.70;;;2.50;;
19842;SDS011;10082;51.038;6.992;2022-10-16T02:33:39;5.55;;;2.90;;
19842;SDS011;10082;51.038;6.992;2022-10-16T02:36:08;3.38;;;2.45;;
19842;SDS011;10082;51.038;6.992;2022-10-16T02:38:36;3.15;;;2.88;;
19842;SDS011;10082;51.038;6.992;2022-10-16T02:41:04;3.95;;;2.75;;
19842;SDS011;10082;51.038;6.992;2022-10-16T02:43:31;3.22;;;2.60;;
19842;SDS011;10082;51.038;6.992;2022-10-16T02:46:00;2.83;;;2.63;;
19842;SDS011;10082;51.038;6.992;2022-10-16T02:48:27;3.70;;;2.90;;
19842;SDS011;10082;51.038;6.992;2022-10-16T02:50:54;2.80;;;2.53;;
19842;SDS011;10082;51.038;6.992;2022-10-16T02:53:22;3.38;;;2.50;;
19842;SDS011;10082;51.038;6.992;2022-10-16T02:55:49;4.00;;;2.85;;
19842;SDS011;10082;51.038;6.992;2022-10-16T02:58:16;2.47;;;2.28;;
19842;SDS011;10082;51.038;6.992;2022-10-16T03:00:43;2.88;;;2.33;;
19842;SDS011;10082;51.038;6.992;2022-10-16T03:03:12;2.55;;;2.35;;
19842;SDS011;10082;51.038;6.992;2022-10-16T03:05:39;2.75;;;2.55;;
19842;SDS011;10082;51.038;6.992;2022-10-16T03:08:06;2.95;;;2.65;;
19842;SDS011;10082;51.038;6.992;2022-10-16T03:10:33;2.63;;;2.40;;
19842;SDS011;10082;51.038;6.992;2022-10-16T03:13:00;4.45;;;2.50;;
19842;SDS011;10082;51.038;6.992;2022-10-16T03:15:27;2.60;;;2.40;;
19842;SDS011;10082;51.038;6.992;2022-10-16T03:17:54;2.50;;;2.38;;
19842;SDS011;10082;51.038;6.992;2022-10-16T03:20:25;2.25;;;2.15;;
19842;SDS011;10082;51.038;6.992;2022-10-16T03:22:52;2.97;;;2.67;;
19842;SDS011;10082;51.038;6.992;2022-10-16T03:25:19;2.75;;;2.53;;
19842;SDS011;10082;51.038;6.992;2022-10-16T03:27:46;3.35;;;2.40;;
19842;SDS011;10082;51.038;6.992;2022-10-16T03:30:13;2.58;;;2.33;;
19842;SDS011;10082;51.038;6.992;2022-10-16T03:32:40;2.33;;;2.13;;
19842;SDS011;10082;51.038;6.992;2022-10-16T03:35:07;3.47;;;2.53;;
19842;SDS011;10082;51.038;6.992;2022-10-16T03:37:36;2.65;;;2.45;;
19842;SDS011;10082;51.038;6.992;2022-10-16T03:40:03;3.25;;;2.33;;
19842;SDS011;10082;51.038;6.992;2022-10-16T03:42:30;2.67;;;2.47;;
19842;SDS011;10082;51.038;6.992;2022-10-16T03:44:57;2.47;;;2.28;;
19842;SDS011;10082;51.038;6.992;2022-10-16T03:47:24;2.40;;;2.20;;
19842;SDS011;10082;51.038;6.992;2022-10-16T03:49:51;2.58;;;2.38;;
19842;SDS011;10082;51.038;6.992;2022-10-16T03:52:17;3.47;;;2.78;;
19842;SDS011;10082;51.038;6.992;2022-10-16T03:54:46;3.20;;;2.75;;
19842;SDS011;10082;51.038;6.992;2022-10-16T03:57:13;3.00;;;2.67;;
19842;SDS011;10082;51.038;6.992;2022-10-16T03:59:39;3.10;;;2.90;;
19842;SDS011;10082;51.038;6.992;2022-10-16T04:02:06;3.53;;;2.58;;
19842;SDS011;10082;51.038;6.992;2022-10-16T04:04:33;2.70;;;2.50;;
19842;SDS011;10082;51.038;6.992;2022-10-16T04:07:00;4.30;;;2.70;;
19842;SDS011;10082;51.038;6.992;2022-10-16T04:09:27;2.90;;;2.60;;
19842;SDS011;10082;51.038;6.992;2022-10-16T04:11:55;2.72;;;2.45;;
19842;SDS011;10082;51.038;6.992;2022-10-16T04:14:22;2.63;;;2.42;;
19842;SDS011;10082;51.038;6.992;2022-10-16T04:16:49;2.78;;;2.50;;
19842;SDS011;10082;51.038;6.992;2022-10-16T04:19:16;2.88;;;2.40;;
19842;SDS011;10082;51.038;6.992;2022-10-16T04:21:44;2.58;;;2.38;;
19842;SDS011;10082;51.038;6.992;2022-10-16T04:24:11;2.90;;;2.28;;
19842;SDS011;10082;51.038;6.992;2022-10-16T04:26:38;2.88;;;1.90;;
19842;SDS011;10082;51.038;6.992;2022-10-16T04:29:06;2.50;;;2.30;;
19842;SDS011;10082;51.038;6.992;2022-10-16T04:31:33;2.22;;;2.03;;
19842;SDS011;10082;51.038;6.992;2022-10-16T04:34:00;4.10;;;2.53;;
19842;SDS011;10082;51.038;6.992;2022-10-16T04:36:27;3.17;;;2.15;;
19842;SDS011;10082;51.038;6.992;2022-10-16T04:38:54;2.70;;;2.00;;
19842;SDS011;10082;51.038;6.992;2022-10-16T04:41:21;1.92;;;1.70;;
19842;SDS011;10082;51.038;6.992;2022-10-16T04:43:47;2.83;;;2.00;;
19842;SDS011;10082;51.038;6.992;2022-10-16T04:46:16;3.17;;;1.85;;
19842;SDS011;10082;51.038;6.992;2022-10-16T04:48:43;3.38;;;1.80;;
19842;SDS011;10082;51.038;6.992;2022-10-16T04:51:10;2.25;;;1.80;;
19842;SDS011;10082;51.038;6.992;2022-10-16T04:53:36;3.15;;;1.90;;
19842;SDS011;10082;51.038;6.992;2022-10-16T04:56:04;2.78;;;1.90;;
19842;SDS011;10082;51.038;6.992;2022-10-16T04:58:31;2.05;;;1.92;;
19842;SDS011;10082;51.038;6.992;2022-10-16T05:00:58;3.03;;;2.08;;
19842;SDS011;10082;51.038;6.992;2022-10-16T05:03:26;3.42;;;1.95;;
19842;SDS011;10082;51.038;6.992;2022-10-16T05:05:53;3.20;;;2.30;;
19842;SDS011;10082;51.038;6.992;2022-10-16T05:08:20;2.55;;;2.08;;
19842;SDS011;10082;51.038;6.992;2022-10-16T05:10:47;2.55;;;2.10;;
19842;SDS011;10082;51.038;6.992;2022-10-16T05:13:13;5.47;;;2.03;;
19842;SDS011;10082;51.038;6.992;2022-10-16T05:15:41;3.80;;;2.33;;
19842;SDS011;10082;51.038;6.992;2022-10-16T05:18:08;7.07;;;2.60;;
19842;SDS011;10082;51.038;6.992;2022-10-16T05:20:37;2.90;;;2.20;;
19842;SDS011;10082;51.038;6.992;2022-10-16T05:23:04;2.50;;;2.30;;
19842;SDS011;10082;51.038;6.992;2022-10-16T05:25:31;2.38;;;2.00;;
19842;SDS011;10082;51.038;6.992;2022-10-16T05:27:57;2.40;;;2.20;;
19842;SDS011;10082;51.038;6.992;2022-10-16T05:30:25;2.75;;;2.47;;
19842;SDS011;10082;51.038;6.992;2022-10-16T05:32:51;3.20;;;2.30;;
19842;SDS011;10082;51.038;6.992;2022-10-16T05:35:19;2.90;;;2.60;;
19842;SDS011;10082;51.038;6.992;2022-10-16T05:37:47;1.95;;;1.85;;
19842;SDS011;10082;51.038;6.992;2022-10-16T05:40:14;3.40;;;2.30;;
19842;SDS011;10082;51.038;6.992;2022-10-16T05:42:42;2.40;;;2.20;;
19842;SDS011;10082;51.038;6.992;2022-10-16T05:45:09;2.28;;;2.17;;
19842;SDS011;10082;51.038;6.992;2022-10-16T05:47:37;4.95;;;2.38;;
19842;SDS011;10082;51.038;6.992;2022-10-16T05:50:05;1.83;;;1.73;;
19842;SDS011;10082;51.038;6.992;2022-10-16T05:52:32;2.28;;;2.10;;
19842;SDS011;10082;51.038;6.992;2022-10-16T05:55:01;2.28;;;2.10;;
19842;SDS011;10082;51.038;6.992;2022-10-16T05:57:27;2.22;;;2.03;;
19842;SDS011;10082;51.038;6.992;2022-10-16T05:59:55;2.40;;;2.20;;
19842;SDS011;10082;51.038;6.992;2022-10-16T06:02:22;3.95;;;2.38;;
19842;SDS011;10082;51.038;6.992;2022-10-16T06:04:49;2.47;;;2.25;;
19842;SDS011;10082;51.038;6.992;2022-10-16T06:07:18;2.90;;;2.63;;
19842;SDS011;10082;51.038;6.992;2022-10-16T06:09:47;2.47;;;2.28;;
19842;SDS011;10082;51.038;6.992;2022-10-16T06:12:16;2.65;;;2.45;;
19842;SDS011;10082;51.038;6.992;2022-10-16T06:14:44;3.33;;;2.42;;
19842;SDS011;10082;51.038;6.992;2022-10-16T06:17:12;2.75;;;2.30;;
19842;SDS011;10082;51.038;6.992;2022-10-16T06:19:38;2.78;;;2.50;;
19842;SDS011;10082;51.038;6.992;2022-10-16T06:22:06;2.78;;;2.58;;
19842;SDS011;10082;51.038;6.992;2022-10-16T06:24:33;2.60;;;2.47;;
19842;SDS011;10082;51.038;6.992;2022-10-16T06:27:00;3.92;;;2.55;;
19842;SDS011;10082;51.038;6.992;2022-10-16T06:29:28;4.78;;;2.70;;
19842;SDS011;10082;51.038;6.992;2022-10-16T06:31:55;2.97;;;2.58;;
19842;SDS011;10082;51.038;6.992;2022-10-16T06:34:22;10.30;;;6.78;;
19842;SDS011;10082;51.038;6.992;2022-10-16T06:36:49;2.95;;;2.70;;
19842;SDS011;10082;51.038;6.992;2022-10-16T06:39:16;2.13;;;2.03;;
19842;SDS011;10082;51.038;6.992;2022-10-16T06:41:43;2.88;;;2.63;;
19842;SDS011;10082;51.038;6.992;2022-10-16T06:44:14;2.53;;;2.42;;
19842;SDS011;10082;51.038;6.992;2022-10-16T06:46:42;2.25;;;2.05;;
19842;SDS011;10082;51.038;6.992;2022-10-16T06:49:09;2.38;;;2.17;;
19842;SDS011;10082;51.038;6.992;2022-10-16T06:51:36;2.20;;;1.85;;
19842;SDS011;10082;51.038;6.992;2022-10-16T06:54:06;2.35;;;2.15;;
19842;SDS011;10082;51.038;6.992;2022-10-16T06:56:33;2.97;;;2.00;;
19842;SDS011;10082;51.038;6.992;2022-10-16T06:59:00;2.15;;;1.80;;
19842;SDS011;10082;51.038;6.992;2022-10-16T07:01:28;2.55;;;2.17;;
19842;SDS011;10082;51.038;6.992;2022-10-16T07:03:57;1.85;;;1.75;;
19842;SDS011;10082;51.038;6.992;2022-10-16T07:06:25;2.05;;;1.80;;
19842;SDS011;10082;51.038;6.992;2022-10-16T07:08:53;3.90;;;1.70;;
19842;SDS011;10082;51.038;6.992;2022-10-16T07:11:20;1.98;;;1.80;;
19842;SDS011;10082;51.038;6.992;2022-10-16T07:13:49;3.83;;;2.00;;
19842;SDS011;10082;51.038;6.992;2022-10-16T07:16:18;2.10;;;1.90;;
19842;SDS011;10082;51.038;6.992;2022-10-16T07:18:46;1.98;;;1.88;;
19842;SDS011;10082;51.038;6.992;2022-10-16T07:21:16;2.30;;;2.13;;
19842;SDS011;10082;51.038;6.992;2022-10-16T07:23:44;1.83;;;1.70;;
19842;SDS011;10082;51.038;6.992;2022-10-16T07:26:11;2.47;;;1.50;;
19842;SDS011;10082;51.038;6.992;2022-10-16T07:28:38;1.85;;;1.67;;
19842;SDS011;10082;51.038;6.992;2022-10-16T07:31:05;1.65;;;1.55;;
19842;SDS011;10082;51.038;6.992;2022-10-16T07:33:36;3.00;;;1.60;;
19842;SDS011;10082;51.038;6.992;2022-10-16T07:36:04;2.90;;;1.58;;
19842;SDS011;10082;51.038;6.992;2022-10-16T07:38:33;1.80;;;1.70;;
19842;SDS011;10082;51.038;6.992;2022-10-16T07:41:01;1.48;;;1.38;;
19842;SDS011;10082;51.038;6.992;2022-10-16T07:43:29;1.70;;;1.60;;
19842;SDS011;10082;51.038;6.992;2022-10-16T07:45:57;1.83;;;1.40;;
19842;SDS011;10082;51.038;6.992;2022-10-16T07:48:26;1.77;;;1.33;;
19842;SDS011;10082;51.038;6.992;2022-10-16T07:50:56;3.03;;;1.67;;
19842;SDS011;10082;51.038;6.992;2022-10-16T07:53:24;1.67;;;1.30;;
19842;SDS011;10082;51.038;6.992;2022-10-16T07:55:54;2.53;;;1.65;;
19842;SDS011;10082;51.038;6.992;2022-10-16T07:58:24;1.30;;;1.20;;
19842;SDS011;10082;51.038;6.992;2022-10-16T08:00:50;2.25;;;1.60;;
19842;SDS011;10082;51.038;6.992;2022-10-16T08:03:17;2.20;;;1.50;;
19842;SDS011;10082;51.038;6.992;2022-10-16T08:05:44;3.28;;;1.30;;
19842;SDS011;10082;51.038;6.992;2022-10-16T08:08:12;1.40;;;1.30;;
19842;SDS011;10082;51.038;6.992;2022-10-16T08:10:40;1.88;;;1.40;;
19842;SDS011;10082;51.038;6.992;2022-10-16T08:13:09;1.60;;;1.30;;
19842;SDS011;10082;51.038;6.992;2022-10-16T08:15:36;1.90;;;1.42;;
19842;SDS011;10082;51.038;6.992;2022-10-16T08:18:03;1.85;;;1.35;;
19842;SDS011;10082;51.038;6.992;2022-10-16T08:20:31;1.98;;;1.38;;
19842;SDS011;10082;51.038;6.992;2022-10-16T08:22:59;1.83;;;1.10;;
19842;SDS011;10082;51.038;6.992;2022-10-16T08:25:26;2.38;;;1.25;;
19842;SDS011;10082;51.038;6.992;2022-10-16T08:27:53;2.60;;;1.50;;
19842;SDS011;10082;51.038;6.992;2022-10-16T08:30:22;3.75;;;1.80;;
19842;SDS011;10082;51.038;6.992;2022-10-16T08:32:50;2.20;;;1.65;;
19842;SDS011;10082;51.038;6.992;2022-10-16T08:35:17;2.40;;;1.70;;
19842;SDS011;10082;51.038;6.992;2022-10-16T08:37:44;2.80;;;1.80;;
19842;SDS011;10082;51.038;6.992;2022-10-16T08:40:15;2.75;;;1.50;;
19842;SDS011;10082;51.038;6.992;2022-10-16T08:42:47;3.42;;;2.03;;
19842;SDS011;10082;51.038;6.992;2022-10-16T08:45:32;2.17;;;1.30;;
19842;SDS011;10082;51.038;6.992;2022-10-16T08:48:10;1.10;;;1.00;;
19842;SDS011;10082;51.038;6.992;2022-10-16T08:50:45;2.75;;;1.15;;
19842;SDS011;10082;51.038;6.992;2022-10-16T08:53:14;4.05;;;1.98;;
19842;SDS011;10082;51.038;6.992;2022-10-16T08:55:45;2.83;;;1.00;;
19842;SDS011;10082;51.038;6.992;2022-10-16T08:58:16;1.27;;;0.95;;
19842;SDS011;10082;51.038;6.992;2022-10-16T09:00:46;0.90;;;0.80;;
19842;SDS011;10082;51.038;6.992;2022-10-16T09:03:29;1.63;;;0.90;;
19842;SDS011;10082;51.038;6.992;2022-10-16T09:06:12;2.53;;;1.05;;
19842;SDS011;10082;51.038;6.992;2022-10-16T09:09:03;1.20;;;0.90;;
19842;SDS011;10082;51.038;6.992;2022-10-16T09:11:58;1.33;;;1.08;;
19842;SDS011;10082;51.038;6.992;2022-10-16T09:14:32;1.15;;;0.90;;
19842;SDS011;10082;51.038;6.992;2022-10-16T09:17:11;2.10;;;0.90;;
19842;SDS011;10082;51.038;6.992;2022-10-16T09:19:50;1.48;;;1.00;;
19842;SDS011;10082;51.038;6.992;2022-10-16T09:22:20;1.05;;;0.90;;
19842;SDS011;10082;51.038;6.992;2022-10-16T09:24:53;1.88;;;0.90;;
19842;SDS011;10082;51.038;6.992;2022-10-16T09:27:21;1.63;;;0.80;;
19842;SDS011;10082;51.038;6.992;2022-10-16T09:29:49;0.63;;;0.60;;
19842;SDS011;10082;51.038;6.992;2022-10-16T09:32:18;0.85;;;0.75;;
19842;SDS011;10082;51.038;6.992;2022-10-16T09:34:47;1.45;;;0.90;;
19842;SDS011;10082;51.038;6.992;2022-10-16T09:37:17;0.85;;;0.82;;
19842;SDS011;10082;51.038;6.992;2022-10-16T09:39:46;2.30;;;0.82;;
19842;SDS011;10082;51.038;6.992;2022-10-16T09:42:15;1.75;;;1.00;;
19842;SDS011;10082;51.038;6.992;2022-10-16T09:44:47;1.80;;;0.70;;
19842;SDS011;10082;51.038;6.992;2022-10-16T09:47:19;1.42;;;0.63;;
19842;SDS011;10082;51.038;6.992;2022-10-16T09:49:53;0.60;;;0.50;;
19842;SDS011;10082;51.038;6.992;2022-10-16T09:52:22;0.65;;;0.63;;
19842;SDS011;10082;51.038;6.992;2022-10-16T09:54:50;0.60;;;0.60;;
19842;SDS011;10082;51.038;6.992;2022-10-16T09:57:18;1.15;;;0.75;;
19842;SDS011;10082;51.038;6.992;2022-10-16T09:59:46;2.67;;;0.82;;
19842;SDS011;10082;51.038;6.992;2022-10-16T10:02:14;1.05;;;0.70;;
19842;SDS011;10082;51.038;6.992;2022-10-16T10:04:48;0.70;;;0.70;;
19842;SDS011;10082;51.038;6.992;2022-10-16T10:07:20;1.38;;;0.80;;
19842;SDS011;10082;51.038;6.992;2022-10-16T10:09:51;1.85;;;0.70;;
19842;SDS011;10082;51.038;6.992;2022-10-16T10:12:19;1.27;;;0.63;;
19842;SDS011;10082;51.038;6.992;2022-10-16T10:14:48;1.95;;;0.70;;
19842;SDS011;10082;51.038;6.992;2022-10-16T10:17:18;1.80;;;0.90;;
19842;SDS011;10082;51.038;6.992;2022-10-16T10:19:48;1.38;;;0.73;;
19842;SDS011;10082;51.038;6.992;2022-10-16T10:22:17;1.65;;;0.75;;
19842;SDS011;10082;51.038;6.992;2022-10-16T10:24:56;1.85;;;1.30;;
19842;SDS011;10082;51.038;6.992;2022-10-16T10:27:29;0.80;;;0.60;;
19842;SDS011;10082;51.038;6.992;2022-10-16T10:30:04;1.17;;;0.68;;
19842;SDS011;10082;51.038;6.992;2022-10-16T10:32:43;0.77;;;0.60;;
19842;SDS011;10082;51.038;6.992;2022-10-16T10:35:24;1.40;;;0.68;;
19842;SDS011;10082;51.038;6.992;2022-10-16T10:38:02;1.33;;;0.65;;
19842;SDS011;10082;51.038;6.992;2022-10-16T10:40:45;0.82;;;0.60;;
19842;SDS011;10082;51.038;6.992;2022-10-16T10:43:29;2.15;;;0.73;;
19842;SDS011;10082;51.038;6.992;2022-10-16T10:46:09;0.95;;;0.95;;
19842;SDS011;10082;51.038;6.992;2022-10-16T10:48:47;3.00;;;0.60;;
19842;SDS011;10082;51.038;6.992;2022-10-16T10:51:27;1.40;;;0.73;;
19842;SDS011;10082;51.038;6.992;2022-10-16T10:54:01;1.08;;;0.80;;
19842;SDS011;10082;51.038;6.992;2022-10-16T10:56:45;0.82;;;0.57;;
19842;SDS011;10082;51.038;6.992;2022-10-16T10:59:35;2.90;;;0.85;;
19842;SDS011;10082;51.038;6.992;2022-10-16T11:02:23;1.08;;;0.45;;
19842;SDS011;10082;51.038;6.992;2022-10-16T11:05:06;1.10;;;0.60;;
19842;SDS011;10082;51.038;6.992;2022-10-16T11:07:49;1.15;;;0.60;;
19842;SDS011;10082;51.038;6.992;2022-10-16T11:10:20;0.80;;;0.65;;
19842;SDS011;10082;51.038;6.992;2022-10-16T11:12:51;1.58;;;1.15;;
19842;SDS011;10082;51.038;6.992;2022-10-16T11:15:24;1.38;;;0.93;;
19842;SDS011;10082;51.038;6.992;2022-10-16T11:17:55;1.50;;;0.80;;
19842;SDS011;10082;51.038;6.992;2022-10-16T11:20:27;1.70;;;0.77;;
19842;SDS011;10082;51.038;6.992;2022-10-16T11:23:00;1.10;;;0.63;;
19842;SDS011;10082;51.038;6.992;2022-10-16T11:25:32;0.75;;;0.60;;
19842;SDS011;10082;51.038;6.992;2022-10-16T11:28:01;2.17;;;0.70;;
19842;SDS011;10082;51.038;6.992;2022-10-16T11:30:33;1.00;;;0.60;;
19842;SDS011;10082;51.038;6.992;2022-10-16T11:33:10;1.67;;;0.55;;
19842;SDS011;10082;51.038;6.992;2022-10-16T11:35:53;0.60;;;0.60;;
19842;SDS011;10082;51.038;6.992;2022-10-16T11:38:26;2.50;;;0.77;;
19842;SDS011;10082;51.038;6.992;2022-10-16T11:40:58;1.08;;;0.73;;
19842;SDS011;10082;51.038;6.992;2022-10-16T11:43:32;1.85;;;0.93;;
19842;SDS011;10082;51.038;6.992;2022-10-16T11:46:04;1.25;;;0.50;;
19842;SDS011;10082;51.038;6.992;2022-10-16T11:48:39;2.20;;;0.65;;
19842;SDS011;10082;51.038;6.992;2022-10-16T11:51:11;2.72;;;0.70;;
19842;SDS011;10082;51.038;6.992;2022-10-16T11:53:45;1.52;;;0.65;;
19842;SDS011;10082;51.038;6.992;2022-10-16T11:56:18;0.70;;;0.60;;
19842;SDS011;10082;51.038;6.992;2022-10-16T11:58:50;1.77;;;0.70;;
19842;SDS011;10082;51.038;6.992;2022-10-16T12:01:26;1.00;;;0.80;;
19842;SDS011;10082;51.038;6.992;2022-10-16T12:04:12;1.45;;;0.95;;
19842;SDS011;10082;51.038;6.992;2022-10-16T12:06:47;1.58;;;0.63;;
19842;SDS011;10082;51.038;6.992;2022-10-16T12:09:22;1.92;;;0.60;;
19842;SDS011;10082;51.038;6.992;2022-10-16T12:11:52;2.00;;;0.82;;
19842;SDS011;10082;51.038;6.992;2022-10-16T12:14:21;1.45;;;0.60;;
19842;SDS011;10082;51.038;6.992;2022-10-16T12:17:01;0.95;;;0.50;;
19842;SDS011;10082;51.038;6.992;2022-10-16T12:19:31;0.90;;;0.75;;
19842;SDS011;10082;51.038;6.992;2022-10-16T12:21:59;1.48;;;0.60;;
19842;SDS011;10082;51.038;6.992;2022-10-16T12:24:34;1.33;;;0.88;;
19842;SDS011;10082;51.038;6.992;2022-10-16T12:27:03;1.58;;;0.63;;
19842;SDS011;10082;51.038;6.992;2022-10-16T12:29:34;2.30;;;0.68;;
19842;SDS011;10082;51.038;6.992;2022-10-16T12:32:04;2.50;;;0.82;;
19842;SDS011;10082;51.038;6.992;2022-10-16T12:34:44;1.35;;;0.85;;
19842;SDS011;10082;51.038;6.992;2022-10-16T12:37:13;2.28;;;0.90;;
19842;SDS011;10082;51.038;6.992;2022-10-16T12:39:48;1.73;;;0.80;;
19842;SDS011;10082;51.038;6.992;2022-10-16T12:42:20;1.17;;;0.98;;
19842;SDS011;10082;51.038;6.992;2022-10-16T12:44:50;1.48;;;0.80;;
19842;SDS011;10082;51.038;6.992;2022-10-16T12:47:21;2.08;;;0.80;;
19842;SDS011;10082;51.038;6.992;2022-10-16T12:49:50;3.97;;;0.73;;
19842;SDS011;10082;51.038;6.992;2022-10-16T12:52:28;1.25;;;0.90;;
19842;SDS011;10082;51.038;6.992;2022-10-16T12:55:03;1.35;;;0.90;;
19842;SDS011;10082;51.038;6.992;2022-10-16T12:57:35;0.73;;;0.70;;
19842;SDS011;10082;51.038;6.992;2022-10-16T13:00:27;2.15;;;0.70;;
19842;SDS011;10082;51.038;6.992;2022-10-16T13:06:02;1.30;;;0.63;;
19842;SDS011;10082;51.038;6.992;2022-10-16T13:08:53;1.27;;;0.60;;
19842;SDS011;10082;51.038;6.992;2022-10-16T13:11:55;1.60;;;0.90;;
19842;SDS011;10082;51.038;6.992;2022-10-16T13:14:44;0.80;;;0.80;;
19842;SDS011;10082;51.038;6.992;2022-10-16T13:17:25;1.13;;;0.63;;
19842;SDS011;10082;51.038;6.992;2022-10-16T13:20:06;1.42;;;0.80;;
19842;SDS011;10082;51.038;6.992;2022-10-16T13:22:44;1.48;;;0.57;;
19842;SDS011;10082;51.038;6.992;2022-10-16T13:25:21;1.58;;;0.90;;
19842;SDS011;10082;51.038;6.992;2022-10-16T13:27:54;5.07;;;1.10;;
19842;SDS011;10082;51.038;6.992;2022-10-16T13:30:23;2.15;;;1.10;;
19842;SDS011;10082;51.038;6.992;2022-10-16T13:32:54;2.03;;;0.90;;
19842;SDS011;10082;51.038;6.992;2022-10-16T13:35:27;2.20;;;1.02;;
19842;SDS011;10082;51.038;6.992;2022-10-16T13:38:06;3.45;;;1.10;;
19842;SDS011;10082;51.038;6.992;2022-10-16T13:40:48;2.97;;;1.00;;
19842;SDS011;10082;51.038;6.992;2022-10-16T13:43:18;1.58;;;0.85;;
19842;SDS011;10082;51.038;6.992;2022-10-16T13:45:52;1.42;;;0.80;;
19842;SDS011;10082;51.038;6.992;2022-10-16T13:48:23;2.30;;;0.80;;
19842;SDS011;10082;51.038;6.992;2022-10-16T13:51:04;1.35;;;0.77;;
19842;SDS011;10082;51.038;6.992;2022-10-16T13:53:37;1.00;;;0.60;;
19842;SDS011;10082;51.038;6.992;2022-10-16T13:56:04;0.90;;;0.63;;
19842;SDS011;10082;51.038;6.992;2022-10-16T13:58:34;1.88;;;0.77;;
19842;SDS011;10082;51.038;6.992;2022-10-16T14:01:02;1.83;;;0.73;;
19842;SDS011;10082;51.038;6.992;2022-10-16T14:03:31;1.10;;;0.60;;
19842;SDS011;10082;51.038;6.992;2022-10-16T14:06:01;1.13;;;0.50;;
19842;SDS011;10082;51.038;6.992;2022-10-16T14:08:30;2.38;;;0.80;;
19842;SDS011;10082;51.038;6.992;2022-10-16T14:10:58;2.20;;;0.80;;
19842;SDS011;10082;51.038;6.992;2022-10-16T14:13:31;0.90;;;0.73;;
19842;SDS011;10082;51.038;6.992;2022-10-16T14:16:05;1.20;;;0.65;;
19842;SDS011;10082;51.038;6.992;2022-10-16T14:18:34;0.82;;;0.70;;
19842;SDS011;10082;51.038;6.992;2022-10-16T14:21:04;1.50;;;0.80;;
19842;SDS011;10082;51.038;6.992;2022-10-16T14:23:33;1.30;;;0.60;;
19842;SDS011;10082;51.038;6.992;2022-10-16T14:26:06;0.60;;;0.60;;
19842;SDS011;10082;51.038;6.992;2022-10-16T14:28:41;1.08;;;0.60;;
19842;SDS011;10082;51.038;6.992;2022-10-16T14:31:22;1.90;;;0.70;;
19842;SDS011;10082;51.038;6.992;2022-10-16T14:33:52;1.65;;;0.70;;
19842;SDS011;10082;51.038;6.992;2022-10-16T14:36:19;1.70;;;0.60;;
19842;SDS011;10082;51.038;6.992;2022-10-16T14:38:48;0.50;;;0.50;;
19842;SDS011;10082;51.038;6.992;2022-10-16T14:41:21;1.10;;;0.80;;
19842;SDS011;10082;51.038;6.992;2022-10-16T14:43:51;0.88;;;0.70;;
19842;SDS011;10082;51.038;6.992;2022-10-16T14:46:20;1.52;;;0.70;;
19842;SDS011;10082;51.038;6.992;2022-10-16T14:48:51;1.25;;;0.70;;
19842;SDS011;10082;51.038;6.992;2022-10-16T14:51:24;0.60;;;0.57;;
19842;SDS011;10082;51.038;6.992;2022-10-16T14:53:52;2.08;;;0.80;;
19842;SDS011;10082;51.038;6.992;2022-10-16T14:56:20;1.83;;;0.80;;
19842;SDS011;10082;51.038;6.992;2022-10-16T14:58:51;1.23;;;0.82;;
19842;SDS011;10082;51.038;6.992;2022-10-16T15:01:18;0.70;;;0.70;;
19842;SDS011;10082;51.038;6.992;2022-10-16T15:03:45;1.88;;;0.73;;
19842;SDS011;10082;51.038;6.992;2022-10-16T15:06:13;1.80;;;0.80;;
19842;SDS011;10082;51.038;6.992;2022-10-16T15:08:42;0.70;;;0.70;;
19842;SDS011;10082;51.038;6.992;2022-10-16T15:11:09;1.20;;;1.10;;